sensor_id;sensor_type;location;lat;lon;timestamp;P1;durP1;ratioP1;P2;durP2;ratioP2
45420;SDS011;55462;47.042;8.292;2022-09-09T00:00:17;2.97;;;1.60;;
45420;SDS011;55462;47.042;8.292;2022-09-09T00:02:49;4.57;;;1.85;;
45420;SDS011;55462;47.042;8.292;2022-09-09T00:05:36;2.65;;;1.48;;
45420;SDS011;55462;47.042;8.292;2022-09-09T00:08:03;1.63;;;1.50;;
45420;SDS011;55462;47.042;8.292;2022-09-09T00:10:36;2.50;;;1.60;;
45420;SDS011;55462;47.042;8.292;2022-09-09T00:21:18;4.82;;;1.75;;
45420;SDS011;55462;47.042;8.292;2022-09-09T00:23:44;1.67;;;1.55;;
45420;SDS011;55462;47.042;8.292;2022-09-09T00:26:18;4.28;;;1.60;;
45420;SDS011;55462;47.042;8.292;2022-09-09T00:28:55;1.85;;;1.38;;
45420;SDS011;55462;47.042;8.292;2022-09-09T00:31:23;1.63;;;1.45;;
45420;SDS011;55462;47.042;8.292;2022-09-09T00:33:52;2.50;;;1.40;;
45420;SDS011;55462;47.042;8.292;2022-09-09T00:36:18;4.90;;;1.58;;
45420;SDS011;55462;47.042;8.292;2022-09-09T00:38:48;4.65;;;1.50;;
45420;SDS011;55462;47.042;8.292;2022-09-09T00:50:03;2.30;;;1.40;;
45420;SDS011;55462;47.042;8.292;2022-09-09T00:55:25;4.05;;;1.40;;
45420;SDS011;55462;47.042;8.292;2022-09-09T00:57:58;4.07;;;1.60;;
45420;SDS011;55462;47.042;8.292;2022-09-09T01:00:27;3.40;;;1.60;;
45420;SDS011;55462;47.042;8.292;2022-09-09T01:07:57;1.60;;;1.50;;
45420;SDS011;55462;47.042;8.292;2022-09-09T01:10:34;1.52;;;1.25;;
45420;SDS011;55462;47.042;8.292;2022-09-09T01:13:08;1.75;;;1.40;;
45420;SDS011;55462;47.042;8.292;2022-09-09T01:15:38;5.13;;;1.45;;
45420;SDS011;55462;47.042;8.292;2022-09-09T01:18:08;1.70;;;1.60;;
45420;SDS011;55462;47.042;8.292;2022-09-09T01:23:24;3.50;;;1.60;;
45420;SDS011;55462;47.042;8.292;2022-09-09T01:28:33;1.27;;;1.23;;
45420;SDS011;55462;47.042;8.292;2022-09-09T01:31:00;3.83;;;1.40;;
45420;SDS011;55462;47.042;8.292;2022-09-09T01:33:28;3.13;;;1.48;;
45420;SDS011;55462;47.042;8.292;2022-09-09T01:35:55;4.47;;;1.35;;
45420;SDS011;55462;47.042;8.292;2022-09-09T01:38:24;5.35;;;1.40;;
45420;SDS011;55462;47.042;8.292;2022-09-09T01:40:50;2.85;;;1.30;;
45420;SDS011;55462;47.042;8.292;2022-09-09T01:43:17;2.42;;;1.33;;
45420;SDS011;55462;47.042;8.292;2022-09-09T01:45:44;3.65;;;1.40;;
45420;SDS011;55462;47.042;8.292;2022-09-09T01:48:10;3.97;;;1.45;;
45420;SDS011;55462;47.042;8.292;2022-09-09T01:50:36;3.58;;;1.58;;
45420;SDS011;55462;47.042;8.292;2022-09-09T01:53:01;4.20;;;1.67;;
45420;SDS011;55462;47.042;8.292;2022-09-09T01:55:40;1.98;;;1.35;;
45420;SDS011;55462;47.042;8.292;2022-09-09T02:01:10;3.13;;;1.48;;
45420;SDS011;55462;47.042;8.292;2022-09-09T02:04:01;2.17;;;1.30;;
45420;SDS011;55462;47.042;8.292;2022-09-09T02:06:34;1.48;;;1.38;;
45420;SDS011;55462;47.042;8.292;2022-09-09T02:09:02;2.88;;;1.60;;
45420;SDS011;55462;47.042;8.292;2022-09-09T02:11:30;5.18;;;1.63;;
45420;SDS011;55462;47.042;8.292;2022-09-09T02:14:04;1.77;;;1.67;;
45420;SDS011;55462;47.042;8.292;2022-09-09T02:19:32;1.70;;;1.50;;
45420;SDS011;55462;47.042;8.292;2022-09-09T02:22:01;2.65;;;1.38;;
45420;SDS011;55462;47.042;8.292;2022-09-09T02:24:27;3.45;;;1.60;;
45420;SDS011;55462;47.042;8.292;2022-09-09T02:26:56;2.45;;;1.67;;
45420;SDS011;55462;47.042;8.292;2022-09-09T02:29:24;6.30;;;1.80;;
45420;SDS011;55462;47.042;8.292;2022-09-09T02:31:51;4.32;;;1.60;;
45420;SDS011;55462;47.042;8.292;2022-09-09T02:34:20;2.03;;;1.50;;
45420;SDS011;55462;47.042;8.292;2022-09-09T02:36:47;3.63;;;1.38;;
45420;SDS011;55462;47.042;8.292;2022-09-09T02:39:13;3.58;;;1.50;;
45420;SDS011;55462;47.042;8.292;2022-09-09T02:41:40;2.83;;;1.95;;
45420;SDS011;55462;47.042;8.292;2022-09-09T02:44:12;1.50;;;1.40;;
45420;SDS011;55462;47.042;8.292;2022-09-09T02:52:05;2.42;;;1.48;;
45420;SDS011;55462;47.042;8.292;2022-09-09T02:54:32;1.33;;;1.25;;
45420;SDS011;55462;47.042;8.292;2022-09-09T02:57:04;3.35;;;1.60;;
45420;SDS011;55462;47.042;8.292;2022-09-09T02:59:33;3.05;;;1.50;;
45420;SDS011;55462;47.042;8.292;2022-09-09T03:01:59;3.80;;;1.60;;
45420;SDS011;55462;47.042;8.292;2022-09-09T03:04:24;4.25;;;1.42;;
45420;SDS011;55462;47.042;8.292;2022-09-09T03:06:49;2.15;;;1.40;;
45420;SDS011;55462;47.042;8.292;2022-09-09T03:09:15;1.75;;;1.50;;
45420;SDS011;55462;47.042;8.292;2022-09-09T03:11:40;1.63;;;1.50;;
45420;SDS011;55462;47.042;8.292;2022-09-09T03:14:06;4.32;;;1.60;;
45420;SDS011;55462;47.042;8.292;2022-09-09T03:16:31;3.47;;;1.60;;
45420;SDS011;55462;47.042;8.292;2022-09-09T03:18:58;2.15;;;1.77;;
45420;SDS011;55462;47.042;8.292;2022-09-09T03:21:23;3.78;;;1.70;;
45420;SDS011;55462;47.042;8.292;2022-09-09T03:23:49;4.63;;;1.67;;
45420;SDS011;55462;47.042;8.292;2022-09-09T03:26:15;2.35;;;2.03;;
45420;SDS011;55462;47.042;8.292;2022-09-09T03:28:40;1.70;;;1.60;;
45420;SDS011;55462;47.042;8.292;2022-09-09T03:31:06;2.10;;;1.88;;
45420;SDS011;55462;47.042;8.292;2022-09-09T03:33:35;2.05;;;1.90;;
45420;SDS011;55462;47.042;8.292;2022-09-09T03:36:02;6.70;;;1.67;;
45420;SDS011;55462;47.042;8.292;2022-09-09T03:38:28;3.95;;;1.90;;
45420;SDS011;55462;47.042;8.292;2022-09-09T03:40:54;3.83;;;2.10;;
45420;SDS011;55462;47.042;8.292;2022-09-09T03:43:24;5.40;;;1.92;;
45420;SDS011;55462;47.042;8.292;2022-09-09T03:45:50;2.65;;;1.65;;
45420;SDS011;55462;47.042;8.292;2022-09-09T03:48:16;2.45;;;1.70;;
45420;SDS011;55462;47.042;8.292;2022-09-09T03:50:45;1.80;;;1.67;;
45420;SDS011;55462;47.042;8.292;2022-09-09T03:53:12;3.55;;;1.90;;
45420;SDS011;55462;47.042;8.292;2022-09-09T03:55:37;2.95;;;2.10;;
45420;SDS011;55462;47.042;8.292;2022-09-09T03:58:02;2.30;;;1.80;;
45420;SDS011;55462;47.042;8.292;2022-09-09T04:00:28;1.90;;;1.80;;
45420;SDS011;55462;47.042;8.292;2022-09-09T04:02:55;2.78;;;1.60;;
45420;SDS011;55462;47.042;8.292;2022-09-09T04:05:22;4.55;;;1.83;;
45420;SDS011;55462;47.042;8.292;2022-09-09T04:07:48;1.73;;;1.40;;
45420;SDS011;55462;47.042;8.292;2022-09-09T04:10:13;2.30;;;1.40;;
45420;SDS011;55462;47.042;8.292;2022-09-09T04:12:38;2.45;;;1.40;;
45420;SDS011;55462;47.042;8.292;2022-09-09T04:15:04;2.20;;;1.70;;
45420;SDS011;55462;47.042;8.292;2022-09-09T04:17:30;3.25;;;2.00;;
45420;SDS011;55462;47.042;8.292;2022-09-09T04:19:55;4.10;;;1.80;;
45420;SDS011;55462;47.042;8.292;2022-09-09T04:22:22;4.03;;;2.08;;
45420;SDS011;55462;47.042;8.292;2022-09-09T04:24:47;1.98;;;1.75;;
45420;SDS011;55462;47.042;8.292;2022-09-09T04:27:12;7.45;;;2.03;;
45420;SDS011;55462;47.042;8.292;2022-09-09T04:29:38;2.63;;;1.70;;
45420;SDS011;55462;47.042;8.292;2022-09-09T04:32:03;2.53;;;1.50;;
45420;SDS011;55462;47.042;8.292;2022-09-09T04:34:29;3.78;;;1.63;;
45420;SDS011;55462;47.042;8.292;2022-09-09T04:36:56;2.75;;;1.70;;
45420;SDS011;55462;47.042;8.292;2022-09-09T04:39:22;3.42;;;1.83;;
45420;SDS011;55462;47.042;8.292;2022-09-09T04:41:47;3.75;;;1.77;;
45420;SDS011;55462;47.042;8.292;2022-09-09T04:44:13;2.20;;;1.80;;
45420;SDS011;55462;47.042;8.292;2022-09-09T04:46:38;5.55;;;2.40;;
45420;SDS011;55462;47.042;8.292;2022-09-09T04:49:06;2.53;;;1.70;;
45420;SDS011;55462;47.042;8.292;2022-09-09T04:51:31;3.10;;;1.92;;
45420;SDS011;55462;47.042;8.292;2022-09-09T04:53:56;1.92;;;1.70;;
45420;SDS011;55462;47.042;8.292;2022-09-09T04:56:22;2.30;;;1.90;;
45420;SDS011;55462;47.042;8.292;2022-09-09T04:58:47;4.53;;;2.05;;
45420;SDS011;55462;47.042;8.292;2022-09-09T05:01:14;2.67;;;1.90;;
45420;SDS011;55462;47.042;8.292;2022-09-09T05:03:42;2.78;;;1.98;;
45420;SDS011;55462;47.042;8.292;2022-09-09T05:06:11;2.30;;;1.90;;
45420;SDS011;55462;47.042;8.292;2022-09-09T05:08:41;1.70;;;1.60;;
45420;SDS011;55462;47.042;8.292;2022-09-09T05:11:18;2.70;;;2.00;;
45420;SDS011;55462;47.042;8.292;2022-09-09T05:13:44;3.45;;;2.15;;
45420;SDS011;55462;47.042;8.292;2022-09-09T05:16:10;2.95;;;2.00;;
45420;SDS011;55462;47.042;8.292;2022-09-09T05:18:36;4.95;;;1.90;;
45420;SDS011;55462;47.042;8.292;2022-09-09T05:21:02;4.03;;;1.95;;
45420;SDS011;55462;47.042;8.292;2022-09-09T05:23:28;3.75;;;2.00;;
45420;SDS011;55462;47.042;8.292;2022-09-09T05:25:54;14.25;;;2.40;;
45420;SDS011;55462;47.042;8.292;2022-09-09T05:28:23;2.80;;;1.98;;
45420;SDS011;55462;47.042;8.292;2022-09-09T05:31:00;3.75;;;2.30;;
45420;SDS011;55462;47.042;8.292;2022-09-09T05:33:29;2.83;;;2.43;;
45420;SDS011;55462;47.042;8.292;2022-09-09T05:35:56;5.57;;;2.53;;
45420;SDS011;55462;47.042;8.292;2022-09-09T05:38:26;8.02;;;2.25;;
45420;SDS011;55462;47.042;8.292;2022-09-09T05:40:52;5.72;;;2.38;;
45420;SDS011;55462;47.042;8.292;2022-09-09T05:43:18;7.88;;;2.75;;
45420;SDS011;55462;47.042;8.292;2022-09-09T05:45:47;2.00;;;1.90;;
45420;SDS011;55462;47.042;8.292;2022-09-09T05:48:12;2.00;;;1.80;;
45420;SDS011;55462;47.042;8.292;2022-09-09T05:50:40;2.20;;;2.00;;
45420;SDS011;55462;47.042;8.292;2022-09-09T05:53:05;2.10;;;2.00;;
45420;SDS011;55462;47.042;8.292;2022-09-09T05:55:31;4.05;;;2.10;;
45420;SDS011;55462;47.042;8.292;2022-09-09T05:57:56;4.90;;;2.80;;
45420;SDS011;55462;47.042;8.292;2022-09-09T06:00:21;4.70;;;2.53;;
45420;SDS011;55462;47.042;8.292;2022-09-09T06:02:50;6.47;;;2.70;;
45420;SDS011;55462;47.042;8.292;2022-09-09T06:05:17;4.80;;;2.50;;
45420;SDS011;55462;47.042;8.292;2022-09-09T06:07:42;5.35;;;2.58;;
45420;SDS011;55462;47.042;8.292;2022-09-09T06:10:09;5.75;;;2.38;;
45420;SDS011;55462;47.042;8.292;2022-09-09T06:12:35;6.47;;;2.08;;
45420;SDS011;55462;47.042;8.292;2022-09-09T06:15:00;4.25;;;2.03;;
45420;SDS011;55462;47.042;8.292;2022-09-09T06:17:26;3.58;;;2.13;;
45420;SDS011;55462;47.042;8.292;2022-09-09T06:19:51;5.82;;;2.40;;
45420;SDS011;55462;47.042;8.292;2022-09-09T06:22:17;3.25;;;2.10;;
45420;SDS011;55462;47.042;8.292;2022-09-09T06:24:42;4.97;;;2.40;;
45420;SDS011;55462;47.042;8.292;2022-09-09T06:27:09;3.58;;;1.83;;
45420;SDS011;55462;47.042;8.292;2022-09-09T06:29:35;4.07;;;2.30;;
45420;SDS011;55462;47.042;8.292;2022-09-09T06:32:01;2.70;;;1.77;;
45420;SDS011;55462;47.042;8.292;2022-09-09T06:34:27;3.90;;;2.10;;
45420;SDS011;55462;47.042;8.292;2022-09-09T06:36:53;3.55;;;2.10;;
45420;SDS011;55462;47.042;8.292;2022-09-09T06:39:18;6.35;;;2.22;;
45420;SDS011;55462;47.042;8.292;2022-09-09T06:41:43;2.42;;;2.00;;
45420;SDS011;55462;47.042;8.292;2022-09-09T06:44:09;3.78;;;2.20;;
45420;SDS011;55462;47.042;8.292;2022-09-09T06:46:36;2.80;;;2.47;;
45420;SDS011;55462;47.042;8.292;2022-09-09T06:49:02;4.03;;;2.35;;
45420;SDS011;55462;47.042;8.292;2022-09-09T06:51:31;2.10;;;2.00;;
45420;SDS011;55462;47.042;8.292;2022-09-09T06:53:59;2.42;;;1.95;;
45420;SDS011;55462;47.042;8.292;2022-09-09T06:56:45;4.32;;;2.20;;
45420;SDS011;55462;47.042;8.292;2022-09-09T06:59:10;2.35;;;2.15;;
45420;SDS011;55462;47.042;8.292;2022-09-09T07:01:38;2.53;;;1.90;;
45420;SDS011;55462;47.042;8.292;2022-09-09T07:04:07;6.63;;;2.20;;
45420;SDS011;55462;47.042;8.292;2022-09-09T07:06:38;2.08;;;1.90;;
45420;SDS011;55462;47.042;8.292;2022-09-09T07:09:05;1.80;;;1.70;;
45420;SDS011;55462;47.042;8.292;2022-09-09T07:11:34;2.38;;;1.98;;
45420;SDS011;55462;47.042;8.292;2022-09-09T07:14:08;3.67;;;2.20;;
45420;SDS011;55462;47.042;8.292;2022-09-09T07:16:35;4.10;;;2.30;;
45420;SDS011;55462;47.042;8.292;2022-09-09T07:19:04;3.92;;;2.30;;
45420;SDS011;55462;47.042;8.292;2022-09-09T07:21:30;4.28;;;2.00;;
45420;SDS011;55462;47.042;8.292;2022-09-09T07:23:56;5.97;;;2.65;;
45420;SDS011;55462;47.042;8.292;2022-09-09T07:26:25;6.90;;;2.40;;
45420;SDS011;55462;47.042;8.292;2022-09-09T07:28:52;4.97;;;2.00;;
45420;SDS011;55462;47.042;8.292;2022-09-09T07:31:22;2.83;;;2.10;;
45420;SDS011;55462;47.042;8.292;2022-09-09T07:33:50;3.97;;;2.30;;
45420;SDS011;55462;47.042;8.292;2022-09-09T07:36:16;2.78;;;1.83;;
45420;SDS011;55462;47.042;8.292;2022-09-09T07:38:50;5.30;;;1.95;;
45420;SDS011;55462;47.042;8.292;2022-09-09T07:41:24;4.00;;;2.13;;
45420;SDS011;55462;47.042;8.292;2022-09-09T07:43:51;6.30;;;2.20;;
45420;SDS011;55462;47.042;8.292;2022-09-09T07:46:19;3.08;;;2.30;;
45420;SDS011;55462;47.042;8.292;2022-09-09T07:48:46;3.55;;;2.42;;
45420;SDS011;55462;47.042;8.292;2022-09-09T07:51:16;2.75;;;2.45;;
45420;SDS011;55462;47.042;8.292;2022-09-09T07:53:43;4.00;;;2.60;;
45420;SDS011;55462;47.042;8.292;2022-09-09T07:56:10;3.40;;;2.30;;
45420;SDS011;55462;47.042;8.292;2022-09-09T07:58:37;2.67;;;2.05;;
45420;SDS011;55462;47.042;8.292;2022-09-09T08:01:14;2.65;;;2.45;;
45420;SDS011;55462;47.042;8.292;2022-09-09T08:04:10;2.30;;;2.15;;
45420;SDS011;55462;47.042;8.292;2022-09-09T08:06:40;6.68;;;2.80;;
45420;SDS011;55462;47.042;8.292;2022-09-09T08:09:07;5.07;;;2.53;;
45420;SDS011;55462;47.042;8.292;2022-09-09T08:11:33;4.68;;;2.25;;
45420;SDS011;55462;47.042;8.292;2022-09-09T08:14:00;2.42;;;2.22;;
45420;SDS011;55462;47.042;8.292;2022-09-09T08:16:27;10.38;;;2.63;;
45420;SDS011;55462;47.042;8.292;2022-09-09T08:18:55;4.43;;;2.00;;
45420;SDS011;55462;47.042;8.292;2022-09-09T08:21:21;2.33;;;1.80;;
45420;SDS011;55462;47.042;8.292;2022-09-09T08:23:55;3.35;;;1.60;;
45420;SDS011;55462;47.042;8.292;2022-09-09T08:26:31;7.22;;;2.53;;
45420;SDS011;55462;47.042;8.292;2022-09-09T08:29:03;4.18;;;2.10;;
45420;SDS011;55462;47.042;8.292;2022-09-09T08:31:31;5.05;;;2.00;;
45420;SDS011;55462;47.042;8.292;2022-09-09T08:34:00;3.78;;;2.42;;
45420;SDS011;55462;47.042;8.292;2022-09-09T08:36:28;4.53;;;2.03;;
45420;SDS011;55462;47.042;8.292;2022-09-09T08:38:55;5.25;;;2.08;;
45420;SDS011;55462;47.042;8.292;2022-09-09T08:46:42;4.50;;;1.83;;
45420;SDS011;55462;47.042;8.292;2022-09-09T08:51:39;2.00;;;1.70;;
45420;SDS011;55462;47.042;8.292;2022-09-09T08:54:06;2.28;;;1.63;;
45420;SDS011;55462;47.042;8.292;2022-09-09T08:56:32;1.42;;;1.42;;
45420;SDS011;55462;47.042;8.292;2022-09-09T08:58:59;4.60;;;1.80;;
45420;SDS011;55462;47.042;8.292;2022-09-09T09:12:24;3.88;;;1.60;;
45420;SDS011;55462;47.042;8.292;2022-09-09T09:14:51;2.58;;;1.80;;
45420;SDS011;55462;47.042;8.292;2022-09-09T09:17:17;3.45;;;1.80;;
45420;SDS011;55462;47.042;8.292;2022-09-09T09:19:43;2.22;;;1.92;;
45420;SDS011;55462;47.042;8.292;2022-09-09T09:25:11;3.42;;;1.98;;
45420;SDS011;55462;47.042;8.292;2022-09-09T09:28:34;4.00;;;2.05;;
45420;SDS011;55462;47.042;8.292;2022-09-09T09:30:55;3.58;;;2.20;;
45420;SDS011;55462;47.042;8.292;2022-09-09T09:36:00;3.45;;;1.90;;
45420;SDS011;55462;47.042;8.292;2022-09-09T09:38:26;2.10;;;1.38;;
45420;SDS011;55462;47.042;8.292;2022-09-09T09:40:53;2.72;;;1.40;;
45420;SDS011;55462;47.042;8.292;2022-09-09T09:43:27;1.30;;;1.20;;
45420;SDS011;55462;47.042;8.292;2022-09-09T09:45:57;2.33;;;1.50;;
45420;SDS011;55462;47.042;8.292;2022-09-09T09:48:23;0.98;;;0.98;;
45420;SDS011;55462;47.042;8.292;2022-09-09T09:50:56;1.73;;;1.50;;
45420;SDS011;55462;47.042;8.292;2022-09-09T09:55:52;1.95;;;1.75;;
45420;SDS011;55462;47.042;8.292;2022-09-09T09:58:21;3.42;;;1.75;;
45420;SDS011;55462;47.042;8.292;2022-09-09T10:00:51;1.30;;;1.20;;
45420;SDS011;55462;47.042;8.292;2022-09-09T10:05:50;1.63;;;1.30;;
45420;SDS011;55462;47.042;8.292;2022-09-09T10:08:16;1.20;;;0.98;;
45420;SDS011;55462;47.042;8.292;2022-09-09T10:15:59;1.48;;;1.38;;
45420;SDS011;55462;47.042;8.292;2022-09-09T10:24:19;1.33;;;1.30;;
45420;SDS011;55462;47.042;8.292;2022-09-09T10:35:29;2.47;;;1.27;;
45420;SDS011;55462;47.042;8.292;2022-09-09T10:46:11;1.45;;;1.35;;
45420;SDS011;55462;47.042;8.292;2022-09-09T10:56:33;1.42;;;1.33;;
45420;SDS011;55462;47.042;8.292;2022-09-09T10:59:00;2.00;;;1.55;;
45420;SDS011;55462;47.042;8.292;2022-09-09T11:01:42;1.67;;;1.17;;
45420;SDS011;55462;47.042;8.292;2022-09-09T11:04:11;1.85;;;1.20;;
45420;SDS011;55462;47.042;8.292;2022-09-09T11:06:41;2.00;;;1.20;;
45420;SDS011;55462;47.042;8.292;2022-09-09T11:09:13;1.77;;;1.40;;
45420;SDS011;55462;47.042;8.292;2022-09-09T11:11:43;1.50;;;1.40;;
45420;SDS011;55462;47.042;8.292;2022-09-09T11:14:21;1.50;;;1.40;;
45420;SDS011;55462;47.042;8.292;2022-09-09T11:16:53;1.65;;;1.55;;
45420;SDS011;55462;47.042;8.292;2022-09-09T11:22:06;1.83;;;1.23;;
45420;SDS011;55462;47.042;8.292;2022-09-09T11:24:45;1.60;;;1.50;;
45420;SDS011;55462;47.042;8.292;2022-09-09T11:40:32;2.42;;;1.40;;
45420;SDS011;55462;47.042;8.292;2022-09-09T11:45:54;3.75;;;1.42;;
45420;SDS011;55462;47.042;8.292;2022-09-09T11:51:05;2.75;;;1.40;;
45420;SDS011;55462;47.042;8.292;2022-09-09T11:53:32;1.60;;;1.50;;
45420;SDS011;55462;47.042;8.292;2022-09-09T11:56:09;3.40;;;1.27;;
45420;SDS011;55462;47.042;8.292;2022-09-09T11:58:58;4.10;;;1.67;;
45420;SDS011;55462;47.042;8.292;2022-09-09T12:01:34;1.45;;;1.38;;
45420;SDS011;55462;47.042;8.292;2022-09-09T12:06:45;2.22;;;1.48;;
45420;SDS011;55462;47.042;8.292;2022-09-09T12:11:43;2.85;;;1.45;;
45420;SDS011;55462;47.042;8.292;2022-09-09T12:14:19;3.00;;;1.92;;
45420;SDS011;55462;47.042;8.292;2022-09-09T12:16:48;3.17;;;1.65;;
45420;SDS011;55462;47.042;8.292;2022-09-09T12:19:21;3.28;;;1.90;;
45420;SDS011;55462;47.042;8.292;2022-09-09T12:30:02;3.40;;;1.90;;
45420;SDS011;55462;47.042;8.292;2022-09-09T12:32:35;2.10;;;1.48;;
45420;SDS011;55462;47.042;8.292;2022-09-09T12:38:01;1.85;;;1.65;;
45420;SDS011;55462;47.042;8.292;2022-09-09T12:40:29;3.42;;;1.55;;
45420;SDS011;55462;47.042;8.292;2022-09-09T12:42:57;2.17;;;1.33;;
45420;SDS011;55462;47.042;8.292;2022-09-09T12:45:26;2.60;;;1.80;;
45420;SDS011;55462;47.042;8.292;2022-09-09T12:48:06;3.53;;;1.83;;
45420;SDS011;55462;47.042;8.292;2022-09-09T12:50:37;2.65;;;1.77;;
45420;SDS011;55462;47.042;8.292;2022-09-09T12:53:09;1.95;;;1.73;;
45420;SDS011;55462;47.042;8.292;2022-09-09T12:55:36;2.17;;;1.58;;
45420;SDS011;55462;47.042;8.292;2022-09-09T12:58:03;1.70;;;1.60;;
45420;SDS011;55462;47.042;8.292;2022-09-09T13:00:30;1.90;;;1.48;;
45420;SDS011;55462;47.042;8.292;2022-09-09T13:02:58;1.33;;;1.23;;
45420;SDS011;55462;47.042;8.292;2022-09-09T13:05:28;1.20;;;1.10;;
45420;SDS011;55462;47.042;8.292;2022-09-09T13:08:00;2.05;;;1.35;;
45420;SDS011;55462;47.042;8.292;2022-09-09T13:10:27;2.83;;;1.27;;
45420;SDS011;55462;47.042;8.292;2022-09-09T13:12:55;2.92;;;1.27;;
45420;SDS011;55462;47.042;8.292;2022-09-09T13:15:22;2.80;;;1.20;;
45420;SDS011;55462;47.042;8.292;2022-09-09T13:17:55;1.77;;;1.40;;
45420;SDS011;55462;47.042;8.292;2022-09-09T13:20:22;2.40;;;1.25;;
45420;SDS011;55462;47.042;8.292;2022-09-09T13:22:50;1.65;;;1.20;;
45420;SDS011;55462;47.042;8.292;2022-09-09T13:25:19;2.33;;;1.45;;
45420;SDS011;55462;47.042;8.292;2022-09-09T13:27:56;1.20;;;1.10;;
45420;SDS011;55462;47.042;8.292;2022-09-09T13:33:29;1.70;;;1.25;;
45420;SDS011;55462;47.042;8.292;2022-09-09T13:35:50;1.80;;;1.25;;
45420;SDS011;55462;47.042;8.292;2022-09-09T13:38:18;2.72;;;1.20;;
45420;SDS011;55462;47.042;8.292;2022-09-09T13:41:03;1.75;;;1.40;;
45420;SDS011;55462;47.042;8.292;2022-09-09T13:43:37;1.50;;;1.38;;
45420;SDS011;55462;47.042;8.292;2022-09-09T13:46:04;2.80;;;1.30;;
45420;SDS011;55462;47.042;8.292;2022-09-09T13:51:43;1.35;;;1.25;;
45420;SDS011;55462;47.042;8.292;2022-09-09T13:54:30;2.75;;;1.30;;
45420;SDS011;55462;47.042;8.292;2022-09-09T13:56:55;2.45;;;1.30;;
45420;SDS011;55462;47.042;8.292;2022-09-09T13:59:21;2.47;;;1.25;;
45420;SDS011;55462;47.042;8.292;2022-09-09T14:01:46;1.75;;;1.10;;
45420;SDS011;55462;47.042;8.292;2022-09-09T14:04:12;3.22;;;1.25;;
45420;SDS011;55462;47.042;8.292;2022-09-09T14:06:38;2.65;;;1.42;;
45420;SDS011;55462;47.042;8.292;2022-09-09T14:09:09;4.40;;;1.30;;
45420;SDS011;55462;47.042;8.292;2022-09-09T14:11:36;1.10;;;1.10;;
45420;SDS011;55462;47.042;8.292;2022-09-09T14:14:01;2.45;;;1.13;;
45420;SDS011;55462;47.042;8.292;2022-09-09T14:16:27;1.10;;;1.05;;
45420;SDS011;55462;47.042;8.292;2022-09-09T14:18:52;2.85;;;1.35;;
45420;SDS011;55462;47.042;8.292;2022-09-09T14:21:18;1.30;;;1.20;;
45420;SDS011;55462;47.042;8.292;2022-09-09T14:23:43;1.40;;;1.30;;
45420;SDS011;55462;47.042;8.292;2022-09-09T14:26:09;1.95;;;1.35;;
45420;SDS011;55462;47.042;8.292;2022-09-09T14:28:35;2.28;;;1.33;;
45420;SDS011;55462;47.042;8.292;2022-09-09T14:31:01;1.10;;;1.05;;
45420;SDS011;55462;47.042;8.292;2022-09-09T14:33:28;2.42;;;1.20;;
45420;SDS011;55462;47.042;8.292;2022-09-09T14:35:58;3.38;;;1.00;;
45420;SDS011;55462;47.042;8.292;2022-09-09T14:38:24;1.77;;;1.27;;
45420;SDS011;55462;47.042;8.292;2022-09-09T14:40:50;1.15;;;1.00;;
45420;SDS011;55462;47.042;8.292;2022-09-09T14:43:16;1.20;;;0.90;;
45420;SDS011;55462;47.042;8.292;2022-09-09T14:45:41;1.00;;;1.00;;
45420;SDS011;55462;47.042;8.292;2022-09-09T14:48:08;1.00;;;1.00;;
45420;SDS011;55462;47.042;8.292;2022-09-09T14:50:33;1.38;;;1.27;;
45420;SDS011;55462;47.042;8.292;2022-09-09T14:52:59;2.55;;;1.20;;
45420;SDS011;55462;47.042;8.292;2022-09-09T14:55:25;2.30;;;1.27;;
45420;SDS011;55462;47.042;8.292;2022-09-09T14:57:53;2.60;;;1.25;;
45420;SDS011;55462;47.042;8.292;2022-09-09T15:00:18;2.05;;;1.00;;
45420;SDS011;55462;47.042;8.292;2022-09-09T15:02:44;1.70;;;1.45;;
45420;SDS011;55462;47.042;8.292;2022-09-09T15:05:09;1.08;;;1.00;;
45420;SDS011;55462;47.042;8.292;2022-09-09T15:07:54;0.95;;;0.95;;
45420;SDS011;55462;47.042;8.292;2022-09-09T15:10:20;1.25;;;1.20;;
45420;SDS011;55462;47.042;8.292;2022-09-09T15:12:46;2.30;;;1.02;;
45420;SDS011;55462;47.042;8.292;2022-09-09T15:15:11;1.17;;;1.10;;
45420;SDS011;55462;47.042;8.292;2022-09-09T15:17:37;0.80;;;0.80;;
45420;SDS011;55462;47.042;8.292;2022-09-09T15:20:03;2.17;;;0.90;;
45420;SDS011;55462;47.042;8.292;2022-09-09T15:22:30;2.00;;;1.20;;
45420;SDS011;55462;47.042;8.292;2022-09-09T15:24:56;1.20;;;1.10;;
45420;SDS011;55462;47.042;8.292;2022-09-09T15:27:22;2.67;;;1.40;;
45420;SDS011;55462;47.042;8.292;2022-09-09T15:29:48;1.50;;;1.00;;
45420;SDS011;55462;47.042;8.292;2022-09-09T15:32:13;0.88;;;0.88;;
45420;SDS011;55462;47.042;8.292;2022-09-09T15:34:38;1.40;;;1.20;;
45420;SDS011;55462;47.042;8.292;2022-09-09T15:37:04;5.55;;;1.17;;
45420;SDS011;55462;47.042;8.292;2022-09-09T15:39:31;2.03;;;0.90;;
45420;SDS011;55462;47.042;8.292;2022-09-09T15:41:56;2.10;;;1.00;;
45420;SDS011;55462;47.042;8.292;2022-09-09T15:44:22;1.95;;;1.38;;
45420;SDS011;55462;47.042;8.292;2022-09-09T15:46:51;2.20;;;1.25;;
45420;SDS011;55462;47.042;8.292;2022-09-09T15:49:25;2.28;;;1.00;;
45420;SDS011;55462;47.042;8.292;2022-09-09T15:51:55;1.85;;;1.17;;
45420;SDS011;55462;47.042;8.292;2022-09-09T15:54:22;1.33;;;1.17;;
45420;SDS011;55462;47.042;8.292;2022-09-09T15:56:53;2.05;;;1.13;;
45420;SDS011;55462;47.042;8.292;2022-09-09T15:59:20;2.40;;;1.08;;
45420;SDS011;55462;47.042;8.292;2022-09-09T16:01:49;1.23;;;0.98;;
45420;SDS011;55462;47.042;8.292;2022-09-09T16:04:18;1.30;;;0.88;;
45420;SDS011;55462;47.042;8.292;2022-09-09T16:06:54;1.20;;;1.10;;
45420;SDS011;55462;47.042;8.292;2022-09-09T16:09:23;1.58;;;1.10;;
45420;SDS011;55462;47.042;8.292;2022-09-09T16:11:49;5.38;;;1.98;;
45420;SDS011;55462;47.042;8.292;2022-09-09T16:14:14;2.17;;;2.00;;
45420;SDS011;55462;47.042;8.292;2022-09-09T16:16:40;1.85;;;1.30;;
45420;SDS011;55462;47.042;8.292;2022-09-09T16:19:07;0.93;;;0.93;;
45420;SDS011;55462;47.042;8.292;2022-09-09T16:21:36;2.47;;;1.20;;
45420;SDS011;55462;47.042;8.292;2022-09-09T16:24:03;4.25;;;1.02;;
45420;SDS011;55462;47.042;8.292;2022-09-09T16:26:29;1.33;;;1.17;;
45420;SDS011;55462;47.042;8.292;2022-09-09T16:28:55;4.28;;;1.55;;
45420;SDS011;55462;47.042;8.292;2022-09-09T16:31:22;2.22;;;1.25;;
45420;SDS011;55462;47.042;8.292;2022-09-09T16:33:48;2.60;;;1.23;;
45420;SDS011;55462;47.042;8.292;2022-09-09T16:36:16;2.67;;;1.10;;
45420;SDS011;55462;47.042;8.292;2022-09-09T16:38:43;4.03;;;1.00;;
45420;SDS011;55462;47.042;8.292;2022-09-09T16:41:09;2.72;;;1.08;;
45420;SDS011;55462;47.042;8.292;2022-09-09T16:43:35;1.65;;;1.25;;
45420;SDS011;55462;47.042;8.292;2022-09-09T16:46:02;2.15;;;1.13;;
45420;SDS011;55462;47.042;8.292;2022-09-09T16:48:32;2.63;;;1.05;;
45420;SDS011;55462;47.042;8.292;2022-09-09T16:51:05;2.80;;;1.20;;
45420;SDS011;55462;47.042;8.292;2022-09-09T16:53:35;2.20;;;0.90;;
45420;SDS011;55462;47.042;8.292;2022-09-09T16:56:04;2.53;;;1.40;;
45420;SDS011;55462;47.042;8.292;2022-09-09T16:58:37;0.90;;;0.90;;
45420;SDS011;55462;47.042;8.292;2022-09-09T17:01:03;2.47;;;1.27;;
45420;SDS011;55462;47.042;8.292;2022-09-09T17:03:29;4.80;;;1.35;;
45420;SDS011;55462;47.042;8.292;2022-09-09T17:05:56;4.15;;;1.65;;
45420;SDS011;55462;47.042;8.292;2022-09-09T17:08:22;2.13;;;1.30;;
45420;SDS011;55462;47.042;8.292;2022-09-09T17:10:48;1.40;;;1.20;;
45420;SDS011;55462;47.042;8.292;2022-09-09T17:13:14;3.30;;;1.23;;
45420;SDS011;55462;47.042;8.292;2022-09-09T17:15:40;2.28;;;1.30;;
45420;SDS011;55462;47.042;8.292;2022-09-09T17:18:09;1.48;;;1.15;;
45420;SDS011;55462;47.042;8.292;2022-09-09T17:20:36;2.65;;;1.20;;
45420;SDS011;55462;47.042;8.292;2022-09-09T17:23:02;2.10;;;1.63;;
45420;SDS011;55462;47.042;8.292;2022-09-09T17:25:27;4.20;;;1.30;;